createdAt,value
2022-09-27T00:01:09.961Z,26.40
2022-09-27T00:03:41.208Z,27.00
2022-09-27T00:06:29.369Z,30.20
2022-09-27T00:08:58.660Z,27.70
2022-09-27T00:11:29.932Z,29.00
2022-09-27T00:13:58.882Z,29.00
2022-09-27T00:16:29.375Z,29.90
2022-09-27T00:19:02.869Z,26.90
2022-09-27T00:21:32.138Z,30.40
2022-09-27T00:24:00.301Z,27.40
2022-09-27T00:26:29.320Z,29.60
2022-09-27T00:28:57.271Z,27.90
2022-09-27T00:31:30.453Z,28.30
2022-09-27T00:34:01.271Z,30.20
2022-09-27T00:36:31.109Z,31.00
2022-09-27T00:39:00.588Z,31.00
2022-09-27T00:41:35.165Z,28.00
2022-09-27T00:44:25.341Z,28.80
2022-09-27T00:47:19.079Z,28.60
2022-09-27T00:49:53.281Z,28.90
2022-09-27T00:52:33.969Z,31.50
2022-09-27T00:55:10.417Z,29.70
2022-09-27T00:57:38.515Z,30.80
2022-09-27T01:00:12.345Z,30.30
2022-09-27T01:02:44.187Z,33.90
2022-09-27T01:05:14.936Z,31.80
2022-09-27T01:07:42.762Z,33.10
2022-09-27T01:10:11.759Z,29.90
2022-09-27T01:13:05.530Z,31.30
2022-09-27T01:15:49.300Z,33.00
2022-09-27T01:18:39.182Z,36.40
2022-09-27T01:21:28.587Z,33.30
2022-09-27T01:24:28.988Z,34.10
2022-09-27T01:27:33.069Z,32.70
2022-09-27T01:30:22.722Z,33.90
2022-09-27T01:33:17.865Z,34.40
2022-09-27T01:36:14.199Z,33.80
2022-09-27T01:39:04.333Z,37.50
2022-09-27T01:42:12.774Z,35.90
2022-09-27T01:44:46.991Z,37.30
2022-09-27T01:47:22.342Z,36.60
2022-09-27T01:50:15.811Z,38.60
2022-09-27T01:52:59.452Z,35.70
2022-09-27T01:55:32.535Z,39.10
2022-09-27T01:58:25.792Z,38.20
2022-09-27T02:00:56.033Z,39.60
2022-09-27T02:03:31.162Z,39.20
2022-09-27T02:06:25.773Z,40.80
2022-09-27T02:09:12.375Z,41.40
2022-09-27T02:12:01.837Z,39.00
2022-09-27T02:14:45.800Z,40.50
2022-09-27T02:22:42.484Z,35.40
2022-09-27T02:25:19.521Z,38.40
2022-09-27T02:28:07.372Z,38.80
2022-09-27T02:30:36.961Z,37.50
2022-09-27T02:33:20.740Z,36.30
2022-09-27T02:35:48.764Z,39.70
2022-09-27T02:38:16.950Z,34.10
2022-09-27T02:40:47.399Z,35.70
2022-09-27T02:43:19.152Z,37.30
2022-09-27T02:46:15.161Z,37.40
2022-09-27T02:49:17.038Z,34.90
2022-09-27T02:52:18.221Z,33.60
2022-09-27T02:55:10.206Z,31.70
2022-09-27T02:58:35.769Z,34.70
2022-09-27T03:01:35.492Z,33.10
2022-09-27T03:04:25.513Z,35.90
2022-09-27T03:06:55.952Z,33.70
2022-09-27T03:09:29.042Z,35.50
2022-09-27T03:11:56.853Z,34.70
2022-09-27T03:14:24.876Z,35.40
2022-09-27T03:17:00.528Z,35.00
2022-09-27T03:19:44.370Z,39.10
2022-09-27T03:22:33.911Z,34.60
2022-09-27T03:25:01.929Z,35.50
2022-09-27T03:27:29.784Z,37.20
2022-09-27T03:29:58.255Z,35.80
2022-09-27T03:32:27.062Z,34.60
2022-09-27T03:35:15.147Z,33.10
2022-09-27T03:37:42.912Z,34.70
2022-09-27T03:40:11.121Z,34.50
2022-09-27T03:42:39.717Z,37.40
2022-09-27T03:45:08.327Z,37.10
2022-09-27T03:47:41.198Z,36.90
2022-09-27T03:50:11.428Z,39.80
2022-09-27T03:52:39.212Z,37.40
2022-09-27T03:55:07.553Z,35.00
2022-09-27T03:57:35.400Z,37.90
2022-09-27T04:00:06.469Z,35.20
2022-09-27T04:02:42.289Z,32.60
2022-09-27T04:05:29.227Z,35.50
2022-09-27T04:08:00.774Z,33.60
2022-09-27T04:10:28.963Z,34.40
2022-09-27T04:12:57.346Z,33.50
2022-09-27T04:15:27.020Z,35.90
2022-09-27T04:18:00.895Z,31.50
2022-09-27T04:20:36.284Z,32.30
2022-09-27T04:23:13.554Z,33.40
2022-09-27T04:28:31.942Z,41.30
2022-09-27T04:31:00.372Z,39.80
2022-09-27T04:33:54.716Z,40.50
2022-09-27T04:36:28.527Z,42.30
2022-09-27T04:39:06.139Z,43.40
2022-09-27T04:41:38.247Z,39.10
2022-09-27T04:44:06.563Z,37.60
2022-09-27T04:46:35.267Z,33.90
2022-09-27T04:49:03.328Z,29.20
2022-09-27T04:51:32.577Z,28.90
2022-09-27T04:54:01.899Z,27.80
2022-09-27T04:56:32.520Z,30.00
2022-09-27T04:59:01.400Z,29.30
2022-09-27T05:01:30.791Z,28.30
2022-09-27T05:06:45.499Z,30.00
2022-09-27T05:09:24.319Z,28.20
2022-09-27T05:11:55.168Z,37.70
2022-09-27T05:14:28.998Z,33.30
2022-09-27T05:17:07.911Z,31.80
2022-09-27T05:19:52.244Z,37.30
2022-09-27T05:22:36.248Z,32.50
2022-09-27T05:25:04.662Z,33.40
2022-09-27T05:27:32.407Z,33.70
2022-09-27T05:30:02.976Z,31.20
2022-09-27T05:32:46.654Z,30.70
2022-09-27T05:35:31.758Z,28.20
2022-09-27T05:38:00.406Z,30.80
2022-09-27T05:40:46.283Z,29.20
2022-09-27T05:43:14.288Z,29.70
2022-09-27T05:45:44.206Z,29.30
2022-09-27T05:48:14.135Z,29.40
2022-09-27T05:50:50.152Z,30.80
2022-09-27T05:53:18.034Z,31.40
2022-09-27T05:55:45.762Z,32.80
2022-09-27T05:58:16.185Z,37.50
2022-09-27T06:00:52.293Z,33.80
2022-09-27T06:03:37.211Z,35.70
2022-09-27T06:06:23.728Z,36.70
2022-09-27T06:08:55.203Z,36.20
2022-09-27T06:11:27.632Z,34.60
2022-09-27T06:13:55.872Z,36.30
2022-09-27T06:16:25.488Z,32.50
2022-09-27T06:18:54.053Z,34.60
2022-09-27T06:21:22.606Z,36.30
2022-09-27T06:23:57.267Z,37.10
2022-09-27T06:26:30.960Z,38.60
2022-09-27T06:31:57.226Z,35.50
2022-09-27T06:34:32.744Z,36.00
2022-09-27T06:37:00.555Z,40.30
2022-09-27T06:39:29.828Z,40.10
2022-09-27T06:42:21.014Z,36.50
2022-09-27T06:47:48.929Z,38.20
2022-09-27T06:53:08.028Z,36.90
2022-09-27T06:55:36.727Z,38.80
2022-09-27T06:58:20.642Z,38.30
2022-09-27T07:01:11.573Z,39.00
2022-09-27T07:04:09.082Z,36.10
2022-09-27T07:06:45.305Z,35.90
2022-09-27T07:09:20.249Z,36.50
2022-09-27T07:11:48.479Z,35.20
2022-09-27T07:14:17.377Z,34.10
2022-09-27T07:16:45.661Z,37.10
2022-09-27T07:19:15.341Z,34.60
2022-09-27T07:21:45.162Z,34.50
2022-09-27T07:24:12.993Z,35.50
2022-09-27T07:26:41.809Z,38.30
2022-09-27T07:29:11.875Z,35.40
2022-09-27T07:31:39.937Z,34.80
2022-09-27T07:34:07.913Z,37.00
2022-09-27T07:36:35.778Z,33.60
2022-09-27T07:39:04.120Z,38.40
2022-09-27T07:41:34.647Z,31.90
2022-09-27T07:44:02.849Z,33.90
2022-09-27T07:46:33.974Z,33.20
2022-09-27T07:49:10.138Z,34.00
2022-09-27T07:51:56.345Z,33.30
2022-09-27T07:54:39.067Z,32.80
2022-09-27T07:57:06.858Z,32.30
2022-09-27T07:59:45.879Z,34.40
2022-09-27T08:02:17.801Z,35.70
2022-09-27T08:04:49.275Z,32.70
2022-09-27T08:07:18.351Z,34.80
2022-09-27T08:09:50.594Z,32.80
2022-09-27T08:12:19.487Z,32.60
2022-09-27T08:14:48.564Z,34.00
2022-09-27T08:17:17.782Z,33.80
2022-09-27T08:20:06.248Z,33.70
2022-09-27T08:22:49.584Z,35.10
2022-09-27T08:25:35.078Z,35.10
2022-09-27T08:28:23.185Z,35.90
2022-09-27T08:31:14.830Z,35.80
2022-09-27T08:33:42.964Z,36.90
2022-09-27T08:36:12.802Z,36.00
2022-09-27T08:38:41.706Z,40.20
2022-09-27T08:41:24.285Z,40.10
2022-09-27T08:44:14.323Z,40.30
2022-09-27T08:46:59.063Z,40.40
2022-09-27T08:49:36.251Z,38.40
2022-09-27T08:52:08.177Z,39.70
2022-09-27T08:54:38.706Z,42.00
2022-09-27T08:57:12.747Z,40.70
2022-09-27T08:59:46.066Z,40.50
2022-09-27T09:02:24.809Z,42.00
2022-09-27T09:05:00.597Z,41.10
2022-09-27T09:07:52.135Z,40.40
2022-09-27T09:11:07.484Z,41.70
2022-09-27T09:14:16.766Z,42.10
2022-09-27T09:17:05.889Z,41.80
2022-09-27T09:19:58.853Z,44.10
2022-09-27T09:23:06.552Z,42.00
2022-09-27T09:26:07.491Z,44.60
2022-09-27T09:28:54.969Z,48.00
2022-09-27T09:31:42.377Z,50.90
2022-09-27T09:34:23.930Z,54.00
2022-09-27T09:37:02.347Z,53.10
2022-09-27T09:39:45.262Z,54.60
2022-09-27T09:42:35.961Z,57.00
2022-09-27T09:45:33.174Z,55.90
2022-09-27T09:48:15.318Z,56.20
2022-09-27T09:50:48.514Z,60.50
2022-09-27T09:53:37.274Z,59.40
2022-09-27T09:56:18.354Z,58.40
2022-09-27T09:58:54.199Z,59.20
2022-09-27T10:01:29.649Z,60.30
2022-09-27T10:03:57.556Z,58.60
2022-09-27T10:06:28.230Z,57.70
2022-09-27T10:08:56.763Z,56.20
2022-09-27T10:11:45.007Z,54.90
2022-09-27T10:14:26.858Z,52.90
2022-09-27T10:17:11.526Z,52.90
2022-09-27T10:19:43.011Z,53.50
2022-09-27T10:22:31.111Z,50.90
2022-09-27T10:25:06.894Z,45.70
2022-09-27T10:28:01.129Z,44.70
2022-09-27T10:30:38.447Z,44.10
2022-09-27T10:33:18.889Z,43.40
2022-09-27T10:35:54.769Z,42.40
2022-09-27T10:38:30.111Z,41.60
2022-09-27T10:41:24.494Z,40.80
2022-09-27T10:43:56.363Z,40.10
2022-09-27T10:46:34.263Z,38.70
2022-09-27T10:49:36.043Z,36.60
2022-09-27T10:52:24.050Z,40.00
2022-09-27T10:54:57.820Z,39.30
2022-09-27T10:57:28.775Z,36.10
2022-09-27T11:00:06.802Z,37.90
2022-09-27T11:02:37.978Z,37.30
2022-09-27T11:05:15.386Z,38.30
2022-09-27T11:07:50.732Z,38.30
2022-09-27T11:10:27.545Z,37.10
2022-09-27T11:13:14.607Z,41.40
2022-09-27T11:16:10.226Z,36.80
2022-09-27T11:18:38.302Z,37.90
2022-09-27T11:21:19.782Z,36.40
2022-09-27T11:24:12.789Z,38.20
2022-09-27T11:27:12.817Z,39.50
2022-09-27T11:29:56.639Z,37.70
2022-09-27T11:32:59.248Z,36.40
2022-09-27T11:35:49.743Z,38.60
2022-09-27T11:38:48.094Z,36.50
2022-09-27T11:41:31.855Z,38.20
2022-09-27T11:44:17.884Z,37.80
2022-09-27T11:46:58.607Z,37.80
2022-09-27T11:49:41.561Z,35.40
2022-09-27T11:52:48.100Z,35.00
2022-09-27T11:55:36.774Z,34.40
2022-09-27T11:58:10.677Z,35.50
2022-09-27T12:01:01.709Z,34.60
2022-09-27T12:03:52.024Z,32.30
2022-09-27T12:06:43.519Z,32.80
2022-09-27T12:09:19.822Z,30.80
2022-09-27T12:12:06.228Z,27.80
2022-09-27T12:14:45.390Z,27.40
2022-09-27T12:17:19.696Z,28.90
2022-09-27T12:19:53.225Z,29.80
2022-09-27T12:22:57.712Z,30.90
2022-09-27T12:25:41.367Z,28.30
2022-09-27T12:28:47.449Z,28.20
2022-09-27T12:31:29.698Z,28.90
2022-09-27T12:34:20.407Z,32.20
2022-09-27T12:37:02.888Z,31.20
2022-09-27T12:39:41.426Z,31.60
2022-09-27T12:42:24.990Z,33.30
2022-09-27T12:44:58.195Z,32.30
2022-09-27T12:47:44.517Z,31.80
2022-09-27T12:50:39.394Z,33.40
2022-09-27T12:53:31.662Z,32.60
2022-09-27T12:56:32.060Z,32.60
2022-09-27T12:59:32.296Z,30.70
2022-09-27T13:02:00.221Z,33.10
2022-09-27T13:04:50.509Z,32.00
2022-09-27T13:07:52.313Z,33.30
2022-09-27T13:10:39.217Z,33.10
2022-09-27T13:13:24.092Z,33.20
2022-09-27T13:15:58.257Z,30.80
2022-09-27T13:18:53.029Z,33.10
2022-09-27T13:21:54.592Z,32.70
2022-09-27T13:24:41.361Z,34.20
2022-09-27T13:27:34.350Z,33.30
2022-09-27T13:30:09.421Z,33.10
2022-09-27T13:32:39.174Z,33.80
2022-09-27T13:35:23.074Z,33.40
2022-09-27T13:38:00.637Z,32.10
2022-09-27T13:40:41.944Z,32.40
2022-09-27T13:44:13.815Z,31.70
2022-09-27T13:47:11.598Z,31.70
2022-09-27T13:52:33.905Z,33.80
2022-09-27T13:55:43.339Z,33.80
2022-09-27T13:58:33.840Z,33.40
2022-09-27T14:01:17.285Z,33.00
2022-09-27T14:03:45.662Z,36.80
2022-09-27T14:06:35.789Z,30.10
2022-09-27T14:09:14.780Z,34.30
2022-09-27T14:11:44.153Z,42.70
2022-09-27T14:14:17.779Z,33.70
2022-09-27T14:16:49.544Z,31.20
2022-09-27T14:19:24.049Z,29.30
2022-09-27T14:21:52.390Z,25.00
2022-09-27T14:24:45.103Z,24.00
2022-09-27T14:27:25.800Z,23.80
2022-09-27T14:30:10.570Z,21.90
2022-09-27T14:32:58.672Z,22.00
2022-09-27T14:36:04.816Z,21.80
2022-09-27T14:38:38.192Z,22.00
2022-09-27T14:41:11.569Z,23.10
2022-09-27T14:43:44.433Z,22.90
2022-09-27T14:46:29.414Z,26.60
2022-09-27T14:48:59.287Z,22.10
2022-09-27T14:51:32.670Z,19.10
2022-09-27T14:54:04.030Z,19.50
2022-09-27T14:56:37.746Z,20.20
2022-09-27T14:59:17.445Z,18.50
2022-09-27T15:01:53.342Z,18.20
2022-09-27T15:04:24.006Z,17.70
2022-09-27T15:06:52.216Z,24.50
2022-09-27T15:09:21.118Z,17.60
2022-09-27T15:11:54.918Z,15.60
2022-09-27T15:14:25.049Z,15.00
2022-09-27T15:16:54.270Z,14.40
2022-09-27T15:19:29.073Z,13.90
2022-09-27T15:22:17.083Z,16.40
2022-09-27T15:24:46.721Z,15.80
2022-09-27T15:27:24.060Z,16.80
2022-09-27T15:29:54.769Z,16.90
2022-09-27T15:32:28.566Z,15.90
2022-09-27T15:34:57.684Z,18.70
2022-09-27T15:37:36.613Z,24.60
2022-09-27T15:40:21.086Z,20.00
2022-09-27T15:43:05.050Z,20.40
2022-09-27T15:45:36.148Z,29.50
2022-09-27T15:48:20.709Z,17.90
2022-09-27T15:50:50.082Z,23.90
2022-09-27T15:53:36.866Z,18.30
2022-09-27T15:56:06.503Z,19.00
2022-09-27T15:58:35.895Z,19.20
2022-09-27T16:01:08.127Z,20.10
2022-09-27T16:03:36.056Z,22.90
2022-09-27T16:06:04.719Z,19.80
2022-09-27T16:08:32.504Z,17.70
2022-09-27T16:11:03.203Z,16.80
2022-09-27T16:13:33.323Z,16.40
2022-09-27T16:16:03.595Z,18.20
2022-09-27T16:18:32.952Z,18.90
2022-09-27T16:21:00.758Z,19.50
2022-09-27T16:23:28.639Z,48.30
2022-09-27T16:25:56.423Z,62.10
2022-09-27T16:28:24.171Z,87.00
2022-09-27T16:30:52.029Z,142.90
2022-09-27T16:33:19.847Z,88.90
2022-09-27T16:35:48.421Z,52.10
2022-09-27T16:38:17.836Z,113.40
2022-09-27T16:40:45.671Z,67.40
2022-09-27T16:43:13.623Z,46.80
2022-09-27T16:45:41.401Z,34.90
2022-09-27T16:48:09.206Z,19.70
2022-09-27T16:50:52.935Z,17.10
2022-09-27T16:55:48.366Z,29.80
2022-09-27T16:58:16.497Z,19.70
2022-09-27T17:00:45.449Z,19.80
2022-09-27T17:03:13.298Z,16.70
2022-09-27T17:05:41.150Z,17.20
2022-09-27T17:08:09.004Z,18.50
2022-09-27T17:10:38.661Z,18.60
2022-09-27T17:13:07.288Z,20.80
2022-09-27T17:15:36.931Z,24.30
2022-09-27T17:18:04.803Z,25.60
2022-09-27T17:20:32.962Z,23.00
2022-09-27T17:23:00.742Z,24.10
2022-09-27T17:25:28.519Z,26.40
2022-09-27T17:27:56.986Z,27.90
2022-09-27T17:30:24.881Z,21.20
2022-09-27T17:32:52.634Z,21.90
2022-09-27T17:35:21.699Z,27.20
2022-09-27T17:37:50.694Z,25.10
2022-09-27T17:40:18.815Z,23.70
2022-09-27T17:42:46.594Z,22.80
2022-09-27T17:45:16.075Z,24.10
2022-09-27T17:47:59.892Z,24.70
2022-09-27T17:50:28.690Z,29.90
2022-09-27T17:52:58.718Z,52.10
2022-09-27T17:55:27.574Z,47.60
2022-09-27T17:57:56.156Z,34.10
2022-09-27T18:00:23.981Z,30.00
2022-09-27T18:02:52.891Z,24.10
2022-09-27T18:05:21.696Z,22.80
2022-09-27T18:07:49.568Z,25.20
2022-09-27T18:10:17.985Z,21.70
2022-09-27T18:12:45.954Z,29.60
2022-09-27T18:15:17.157Z,73.10
2022-09-27T18:17:46.063Z,40.20
2022-09-27T18:20:13.952Z,25.00
2022-09-27T18:22:41.750Z,57.30
2022-09-27T18:25:11.483Z,40.50
2022-09-27T18:27:40.884Z,34.30
2022-09-27T18:30:09.780Z,75.20
2022-09-27T18:32:37.542Z,43.50
2022-09-27T18:35:06.947Z,46.60
2022-09-27T18:37:34.765Z,29.50
2022-09-27T18:40:02.517Z,26.80
2022-09-27T18:42:31.173Z,18.50
2022-09-27T18:44:58.984Z,18.50
2022-09-27T18:47:26.829Z,19.00
2022-09-27T18:49:55.098Z,18.40
2022-09-27T18:52:22.827Z,22.10
2022-09-27T18:54:51.007Z,20.30
2022-09-27T18:57:19.269Z,20.90
2022-09-27T18:59:49.204Z,20.50
2022-09-27T19:02:17.668Z,23.40
2022-09-27T19:04:45.514Z,29.60
2022-09-27T19:07:13.434Z,19.90
2022-09-27T19:09:41.236Z,18.90
2022-09-27T19:12:09.039Z,18.30
2022-09-27T19:14:36.908Z,17.60
2022-09-27T19:17:04.676Z,17.80
2022-09-27T19:19:32.698Z,17.70
2022-09-27T19:22:00.557Z,17.20
2022-09-27T19:24:28.370Z,16.70
2022-09-27T19:26:57.454Z,16.70
2022-09-27T19:29:25.462Z,16.70
2022-09-27T19:31:53.221Z,16.50
2022-09-27T19:34:21.005Z,18.00
2022-09-27T19:36:48.729Z,16.80
2022-09-27T19:39:16.739Z,16.80
2022-09-27T19:41:45.799Z,17.40
2022-09-27T19:44:13.754Z,17.40
2022-09-27T19:46:42.362Z,17.50
2022-09-27T19:49:10.161Z,17.30
2022-09-27T19:51:37.901Z,17.90
2022-09-27T19:54:05.841Z,17.80
2022-09-27T19:56:34.230Z,18.20
2022-09-27T19:59:06.849Z,17.70
2022-09-27T20:01:35.708Z,17.70
2022-09-27T20:04:03.658Z,20.00
2022-09-27T20:06:32.656Z,18.10
2022-09-27T20:09:03.094Z,17.20
2022-09-27T20:11:33.090Z,18.70
2022-09-27T20:14:00.957Z,17.70
2022-09-27T20:16:28.802Z,19.30
2022-09-27T20:18:59.337Z,18.60
2022-09-27T20:21:31.110Z,21.60
2022-09-27T20:24:00.809Z,20.40
2022-09-27T20:26:30.779Z,20.50
2022-09-27T20:29:00.346Z,21.80
2022-09-27T20:31:37.497Z,19.40
2022-09-27T20:34:12.862Z,20.00
2022-09-27T20:36:44.135Z,21.80
2022-09-27T20:39:14.270Z,21.90
2022-09-27T20:41:45.766Z,22.20
2022-09-27T20:44:18.852Z,21.80
2022-09-27T20:46:47.699Z,22.80
2022-09-27T20:49:19.574Z,23.90
2022-09-27T20:51:48.545Z,23.10
2022-09-27T20:54:16.796Z,22.20
2022-09-27T20:56:47.170Z,23.20
2022-09-27T20:59:16.966Z,22.40
2022-09-27T21:01:47.464Z,24.00
2022-09-27T21:04:18.042Z,25.60
2022-09-27T21:06:46.509Z,24.10
2022-09-27T21:09:19.132Z,22.80
2022-09-27T21:11:48.700Z,25.50
2022-09-27T21:14:16.705Z,26.30
2022-09-27T21:16:44.836Z,25.60
2022-09-27T21:19:13.295Z,26.50
2022-09-27T21:21:41.275Z,26.60
2022-09-27T21:24:09.117Z,26.20
2022-09-27T21:26:37.050Z,25.80
2022-09-27T21:29:11.680Z,26.60
2022-09-27T21:31:40.045Z,28.30
2022-09-27T21:34:08.017Z,31.70
2022-09-27T21:36:38.283Z,28.20
2022-09-27T21:39:08.604Z,27.30
2022-09-27T21:41:38.850Z,28.50
2022-09-27T21:44:07.660Z,26.90
2022-09-27T21:46:40.669Z,27.90
2022-09-27T21:49:09.057Z,29.30
2022-09-27T21:51:38.499Z,28.10
2022-09-27T21:54:10.148Z,28.20
2022-09-27T21:56:39.913Z,28.00
2022-09-27T21:59:11.800Z,27.50
2022-09-27T22:01:39.645Z,28.00
2022-09-27T22:04:08.263Z,29.80
2022-09-27T22:06:38.271Z,27.80
2022-09-27T22:09:09.241Z,28.00
2022-09-27T22:11:42.816Z,26.20
2022-09-27T22:14:11.910Z,29.10
2022-09-27T22:16:39.949Z,29.00
2022-09-27T22:19:08.183Z,29.90
2022-09-27T22:21:38.290Z,30.70
2022-09-27T22:24:17.860Z,29.70
2022-09-27T22:26:49.253Z,31.50
2022-09-27T22:29:17.469Z,29.90
2022-09-27T22:31:45.437Z,29.90
2022-09-27T22:34:29.142Z,29.50
2022-09-27T22:36:58.933Z,29.10
2022-09-27T22:39:27.218Z,28.80
2022-09-27T22:41:54.986Z,28.50
2022-09-27T22:44:23.464Z,28.90
2022-09-27T22:46:51.356Z,28.30
2022-09-27T22:49:19.620Z,29.80
2022-09-27T22:51:47.434Z,30.30
2022-09-27T22:54:15.229Z,32.30
2022-09-27T22:56:42.959Z,59.00
2022-09-27T22:59:10.721Z,46.20
2022-09-27T23:01:38.534Z,38.90
2022-09-27T23:04:06.309Z,32.70
2022-09-27T23:06:34.157Z,30.70
2022-09-27T23:09:02.750Z,28.60
2022-09-27T23:11:30.924Z,28.20
2022-09-27T23:13:58.688Z,29.70
2022-09-27T23:16:26.510Z,28.80
2022-09-27T23:18:56.633Z,30.40
2022-09-27T23:21:26.708Z,29.50
2022-09-27T23:23:56.918Z,29.70
2022-09-27T23:26:26.842Z,29.50
2022-09-27T23:28:57.453Z,28.60
2022-09-27T23:31:29.689Z,28.90
2022-09-27T23:34:01.485Z,30.30
2022-09-27T23:36:29.312Z,33.70
2022-09-27T23:39:01.345Z,30.20
2022-09-27T23:41:29.151Z,31.30
2022-09-27T23:43:57.257Z,29.90
2022-09-27T23:46:25.301Z,28.40
2022-09-27T23:48:53.418Z,27.50
2022-09-27T23:51:21.235Z,24.30
2022-09-27T23:53:49.356Z,19.60
2022-09-27T23:56:18.141Z,18.70
2022-09-27T23:58:46.871Z,16.20
